sensor_id;sensor_type;location;lat;lon;timestamp;pressure;altitude;pressure_sealevel;temperature;humidity
69630;BME280;56857;52.212;5.496;2023-05-23T00:01:37;101968.38;;;14.22;100.00
69630;BME280;56857;52.212;5.496;2023-05-23T00:04:03;101968.56;;;14.20;100.00
69630;BME280;56857;52.212;5.496;2023-05-23T00:06:28;101974.41;;;14.16;100.00
69630;BME280;56857;52.212;5.496;2023-05-23T00:08:54;101978.75;;;14.17;100.00
69630;BME280;56857;52.212;5.496;2023-05-23T00:11:20;101983.91;;;14.10;100.00
69630;BME280;56857;52.212;5.496;2023-05-23T00:13:45;101971.22;;;14.04;100.00
69630;BME280;56857;52.212;5.496;2023-05-23T00:16:10;101989.06;;;14.03;100.00
69630;BME280;56857;52.212;5.496;2023-05-23T00:18:37;101977.88;;;14.00;100.00
69630;BME280;56857;52.212;5.496;2023-05-23T00:21:03;101980.53;;;13.91;100.00
69630;BME280;56857;52.212;5.496;2023-05-23T00:23:28;101986.88;;;13.90;100.00
69630;BME280;56857;52.212;5.496;2023-05-23T00:25:54;101985.69;;;13.85;100.00
69630;BME280;56857;52.212;5.496;2023-05-23T00:28:20;101994.47;;;13.77;100.00
69630;BME280;56857;52.212;5.496;2023-05-23T00:30:46;101994.66;;;13.76;100.00
69630;BME280;56857;52.212;5.496;2023-05-23T00:33:11;101992.13;;;13.74;100.00
69630;BME280;56857;52.212;5.496;2023-05-23T00:35:37;102001.44;;;13.70;100.00
69630;BME280;56857;52.212;5.496;2023-05-23T00:38:10;101995.63;;;13.66;100.00
69630;BME280;56857;52.212;5.496;2023-05-23T00:40:35;102001.59;;;13.60;100.00
69630;BME280;56857;52.212;5.496;2023-05-23T00:43:01;102004.44;;;13.59;100.00
69630;BME280;56857;52.212;5.496;2023-05-23T00:45:26;102001.06;;;13.57;100.00
69630;BME280;56857;52.212;5.496;2023-05-23T00:47:52;101997.06;;;13.53;100.00
69630;BME280;56857;52.212;5.496;2023-05-23T00:50:18;102007.19;;;13.49;100.00
69630;BME280;56857;52.212;5.496;2023-05-23T00:52:45;102010.16;;;13.46;100.00
69630;BME280;56857;52.212;5.496;2023-05-23T00:55:12;102015.00;;;13.42;100.00
69630;BME280;56857;52.212;5.496;2023-05-23T00:57:38;102013.38;;;13.50;100.00
69630;BME280;56857;52.212;5.496;2023-05-23T01:00:06;102009.03;;;13.49;100.00
69630;BME280;56857;52.212;5.496;2023-05-23T01:02:33;102002.19;;;13.46;100.00
69630;BME280;56857;52.212;5.496;2023-05-23T01:05:00;102003.69;;;13.49;100.00
69630;BME280;56857;52.212;5.496;2023-05-23T01:07:25;102002.41;;;13.53;100.00
69630;BME280;56857;52.212;5.496;2023-05-23T01:09:51;102003.22;;;13.53;100.00
69630;BME280;56857;52.212;5.496;2023-05-23T01:15:12;102004.25;;;13.60;100.00
69630;BME280;56857;52.212;5.496;2023-05-23T01:17:58;102003.56;;;13.58;100.00
69630;BME280;56857;52.212;5.496;2023-05-23T01:20:30;102007.41;;;13.56;100.00
69630;BME280;56857;52.212;5.496;2023-05-23T01:23:12;102001.91;;;13.57;100.00
69630;BME280;56857;52.212;5.496;2023-05-23T01:28:44;102002.03;;;13.48;100.00
69630;BME280;56857;52.212;5.496;2023-05-23T01:31:10;102006.84;;;13.44;100.00
69630;BME280;56857;52.212;5.496;2023-05-23T01:33:37;102001.22;;;13.47;100.00
69630;BME280;56857;52.212;5.496;2023-05-23T01:36:04;102010.16;;;13.46;100.00
69630;BME280;56857;52.212;5.496;2023-05-23T01:38:30;102007.38;;;13.48;100.00
69630;BME280;56857;52.212;5.496;2023-05-23T01:40:55;102014.03;;;13.52;100.00
69630;BME280;56857;52.212;5.496;2023-05-23T01:43:21;102012.38;;;13.51;100.00
69630;BME280;56857;52.212;5.496;2023-05-23T01:45:47;102010.72;;;13.50;100.00
69630;BME280;56857;52.212;5.496;2023-05-23T01:48:14;102008.88;;;13.50;100.00
69630;BME280;56857;52.212;5.496;2023-05-23T01:50:39;102010.84;;;13.48;100.00
69630;BME280;56857;52.212;5.496;2023-05-23T01:53:07;102024.69;;;13.52;100.00
69630;BME280;56857;52.212;5.496;2023-05-23T01:55:33;102028.00;;;13.45;100.00
69630;BME280;56857;52.212;5.496;2023-05-23T01:57:59;102021.00;;;13.44;100.00
69630;BME280;56857;52.212;5.496;2023-05-23T02:00:25;102017.81;;;13.41;100.00
69630;BME280;56857;52.212;5.496;2023-05-23T02:02:50;102028.47;;;13.41;100.00
69630;BME280;56857;52.212;5.496;2023-05-23T02:05:17;102025.97;;;13.39;100.00
69630;BME280;56857;52.212;5.496;2023-05-23T02:07:42;102027.78;;;13.39;100.00
69630;BME280;56857;52.212;5.496;2023-05-23T02:10:08;102032.59;;;13.35;100.00
69630;BME280;56857;52.212;5.496;2023-05-23T02:12:34;102029.94;;;13.35;100.00
69630;BME280;56857;52.212;5.496;2023-05-23T02:14:59;102036.94;;;13.36;100.00
69630;BME280;56857;52.212;5.496;2023-05-23T02:17:25;102041.28;;;13.37;100.00
69630;BME280;56857;52.212;5.496;2023-05-23T02:19:50;102031.47;;;13.38;100.00
69630;BME280;56857;52.212;5.496;2023-05-23T02:22:16;102041.91;;;13.31;100.00
69630;BME280;56857;52.212;5.496;2023-05-23T02:24:41;102030.13;;;13.34;100.00
69630;BME280;56857;52.212;5.496;2023-05-23T02:27:07;102041.59;;;13.34;100.00
69630;BME280;56857;52.212;5.496;2023-05-23T02:29:32;102038.75;;;13.36;100.00
69630;BME280;56857;52.212;5.496;2023-05-23T02:31:58;102039.13;;;13.41;100.00
69630;BME280;56857;52.212;5.496;2023-05-23T02:34:23;102040.66;;;13.43;100.00
69630;BME280;56857;52.212;5.496;2023-05-23T02:36:48;102039.81;;;13.43;100.00
69630;BME280;56857;52.212;5.496;2023-05-23T02:39:14;102040.66;;;13.43;100.00
69630;BME280;56857;52.212;5.496;2023-05-23T02:41:39;102038.81;;;13.44;100.00
69630;BME280;56857;52.212;5.496;2023-05-23T02:44:04;102050.13;;;13.46;100.00
69630;BME280;56857;52.212;5.496;2023-05-23T02:46:30;102049.97;;;13.48;100.00
69630;BME280;56857;52.212;5.496;2023-05-23T02:48:55;102048.97;;;13.49;100.00
69630;BME280;56857;52.212;5.496;2023-05-23T02:51:21;102050.50;;;13.51;100.00
69630;BME280;56857;52.212;5.496;2023-05-23T02:53:46;102053.03;;;13.53;100.00
69630;BME280;56857;52.212;5.496;2023-05-23T02:56:12;102042.50;;;13.51;100.00
69630;BME280;56857;52.212;5.496;2023-05-23T02:58:38;102052.84;;;13.54;100.00
69630;BME280;56857;52.212;5.496;2023-05-23T03:01:03;102055.38;;;13.56;100.00
69630;BME280;56857;52.212;5.496;2023-05-23T03:03:29;102053.69;;;13.55;100.00
69630;BME280;56857;52.212;5.496;2023-05-23T03:05:54;102052.84;;;13.54;100.00
69630;BME280;56857;52.212;5.496;2023-05-23T03:08:19;102051.84;;;13.55;100.00
69630;BME280;56857;52.212;5.496;2023-05-23T03:10:44;102046.38;;;13.57;100.00
69630;BME280;56857;52.212;5.496;2023-05-23T03:13:10;102052.69;;;13.56;100.00
69630;BME280;56857;52.212;5.496;2023-05-23T03:15:35;102059.19;;;13.53;100.00
69630;BME280;56857;52.212;5.496;2023-05-23T03:18:01;102067.16;;;13.53;100.00
69630;BME280;56857;52.212;5.496;2023-05-23T03:20:26;102058.34;;;13.53;100.00
69630;BME280;56857;52.212;5.496;2023-05-23T03:22:51;102059.31;;;13.52;100.00
69630;BME280;56857;52.212;5.496;2023-05-23T03:25:17;102065.97;;;13.48;100.00
69630;BME280;56857;52.212;5.496;2023-05-23T03:27:42;102068.25;;;13.42;100.00
69630;BME280;56857;52.212;5.496;2023-05-23T03:30:08;102067.91;;;13.37;100.00
69630;BME280;56857;52.212;5.496;2023-05-23T03:32:33;102064.56;;;13.35;100.00
69630;BME280;56857;52.212;5.496;2023-05-23T03:34:58;102059.72;;;13.31;100.00
69630;BME280;56857;52.212;5.496;2023-05-23T03:37:24;102063.94;;;13.23;100.00
69630;BME280;56857;52.212;5.496;2023-05-23T03:39:49;102063.94;;;13.23;100.00
69630;BME280;56857;52.212;5.496;2023-05-23T03:42:16;102066.94;;;13.20;100.00
69630;BME280;56857;52.212;5.496;2023-05-23T03:44:42;102074.41;;;13.17;100.00
69630;BME280;56857;52.212;5.496;2023-05-23T03:47:07;102076.22;;;13.16;100.00
69630;BME280;56857;52.212;5.496;2023-05-23T03:49:33;102072.75;;;13.16;100.00
69630;BME280;56857;52.212;5.496;2023-05-23T03:51:58;102078.19;;;13.14;100.00
69630;BME280;56857;52.212;5.496;2023-05-23T03:54:23;102081.50;;;13.08;100.00
69630;BME280;56857;52.212;5.496;2023-05-23T03:56:49;102086.28;;;13.05;100.00
69630;BME280;56857;52.212;5.496;2023-05-23T03:59:14;102087.47;;;13.02;100.00
69630;BME280;56857;52.212;5.496;2023-05-23T04:01:41;102089.56;;;12.98;100.00
69630;BME280;56857;52.212;5.496;2023-05-23T04:04:06;102093.22;;;12.97;100.00
69630;BME280;56857;52.212;5.496;2023-05-23T04:06:31;102100.69;;;12.94;100.00
69630;BME280;56857;52.212;5.496;2023-05-23T04:08:56;102093.00;;;12.91;100.00
69630;BME280;56857;52.212;5.496;2023-05-23T04:11:22;102100.16;;;12.90;100.00
69630;BME280;56857;52.212;5.496;2023-05-23T04:13:48;102107.97;;;12.92;100.00
69630;BME280;56857;52.212;5.496;2023-05-23T04:16:14;102101.00;;;12.91;100.00
69630;BME280;56857;52.212;5.496;2023-05-23T04:18:39;102108.16;;;12.90;100.00
69630;BME280;56857;52.212;5.496;2023-05-23T04:21:04;102110.91;;;12.81;100.00
69630;BME280;56857;52.212;5.496;2023-05-23T04:23:30;102110.50;;;12.75;100.00
69630;BME280;56857;52.212;5.496;2023-05-23T04:25:55;102124.13;;;12.72;100.00
69630;BME280;56857;52.212;5.496;2023-05-23T04:28:20;102118.78;;;12.72;100.00
69630;BME280;56857;52.212;5.496;2023-05-23T04:30:46;102121.16;;;12.75;100.00
69630;BME280;56857;52.212;5.496;2023-05-23T04:33:11;102125.63;;;12.75;100.00
69630;BME280;56857;52.212;5.496;2023-05-23T04:35:36;102130.97;;;12.75;100.00
69630;BME280;56857;52.212;5.496;2023-05-23T04:38:02;102120.78;;;12.70;100.00
69630;BME280;56857;52.212;5.496;2023-05-23T04:40:28;102114.78;;;12.68;100.00
69630;BME280;56857;52.212;5.496;2023-05-23T04:42:54;102129.38;;;12.64;100.00
69630;BME280;56857;52.212;5.496;2023-05-23T04:45:19;102134.00;;;12.62;100.00
69630;BME280;56857;52.212;5.496;2023-05-23T04:47:45;102129.13;;;12.58;100.00
69630;BME280;56857;52.212;5.496;2023-05-23T04:50:10;102133.59;;;12.57;100.00
69630;BME280;56857;52.212;5.496;2023-05-23T04:52:36;102132.63;;;12.58;100.00
69630;BME280;56857;52.212;5.496;2023-05-23T04:55:01;102136.13;;;12.59;100.00
69630;BME280;56857;52.212;5.496;2023-05-23T04:57:27;102142.28;;;12.59;100.00
69630;BME280;56857;52.212;5.496;2023-05-23T04:59:52;102142.06;;;12.52;100.00
69630;BME280;56857;52.212;5.496;2023-05-23T05:02:18;102150.63;;;12.46;100.00
69630;BME280;56857;52.212;5.496;2023-05-23T05:04:43;102152.47;;;12.46;100.00
69630;BME280;56857;52.212;5.496;2023-05-23T05:07:12;102156.78;;;12.47;100.00
69630;BME280;56857;52.212;5.496;2023-05-23T05:09:38;102166.28;;;12.49;100.00
69630;BME280;56857;52.212;5.496;2023-05-23T05:12:03;102161.09;;;12.48;100.00
69630;BME280;56857;52.212;5.496;2023-05-23T05:14:29;102180.88;;;12.45;100.00
69630;BME280;56857;52.212;5.496;2023-05-23T05:16:55;102178.66;;;12.41;100.00
69630;BME280;56857;52.212;5.496;2023-05-23T05:19:20;102181.75;;;12.36;100.00
69630;BME280;56857;52.212;5.496;2023-05-23T05:21:46;102177.41;;;12.35;100.00
69630;BME280;56857;52.212;5.496;2023-05-23T05:24:11;102183.88;;;12.33;100.00
69630;BME280;56857;52.212;5.496;2023-05-23T05:26:36;102189.34;;;12.31;100.00
69630;BME280;56857;52.212;5.496;2023-05-23T05:29:02;102189.34;;;12.31;100.00
69630;BME280;56857;52.212;5.496;2023-05-23T05:31:27;102193.81;;;12.31;100.00
69630;BME280;56857;52.212;5.496;2023-05-23T05:33:52;102194.53;;;12.33;100.00
69630;BME280;56857;52.212;5.496;2023-05-23T05:36:18;102201.63;;;12.32;100.00
69630;BME280;56857;52.212;5.496;2023-05-23T05:38:44;102204.00;;;12.35;100.00
69630;BME280;56857;52.212;5.496;2023-05-23T05:41:09;102209.03;;;12.38;100.00
69630;BME280;56857;52.212;5.496;2023-05-23T05:43:35;102211.25;;;12.43;100.00
69630;BME280;56857;52.212;5.496;2023-05-23T05:46:01;102206.06;;;12.41;100.00
69630;BME280;56857;52.212;5.496;2023-05-23T05:48:26;102203.13;;;12.44;100.00
69630;BME280;56857;52.212;5.496;2023-05-23T05:50:51;102211.78;;;12.46;100.00
69630;BME280;56857;52.212;5.496;2023-05-23T05:53:17;102212.03;;;12.53;100.00
69630;BME280;56857;52.212;5.496;2023-05-23T05:55:44;102210.91;;;12.56;100.00
69630;BME280;56857;52.212;5.496;2023-05-23T05:58:11;102219.56;;;12.58;100.00
69630;BME280;56857;52.212;5.496;2023-05-23T06:00:37;102218.28;;;12.62;100.00
69630;BME280;56857;52.212;5.496;2023-05-23T06:03:02;102222.09;;;12.59;100.00
69630;BME280;56857;52.212;5.496;2023-05-23T06:05:28;102223.13;;;12.48;100.00
69630;BME280;56857;52.212;5.496;2023-05-23T06:07:53;102226.22;;;12.44;100.00
69630;BME280;56857;52.212;5.496;2023-05-23T06:10:20;102234.06;;;12.45;100.00
69630;BME280;56857;52.212;5.496;2023-05-23T06:12:48;102226.63;;;12.49;100.00
69630;BME280;56857;52.212;5.496;2023-05-23T06:15:17;102226.34;;;12.52;100.00
69630;BME280;56857;52.212;5.496;2023-05-23T06:17:42;102227.28;;;12.51;100.00
69630;BME280;56857;52.212;5.496;2023-05-23T06:20:08;102230.25;;;12.48;100.00
69630;BME280;56857;52.212;5.496;2023-05-23T06:22:33;102231.69;;;12.42;100.00
69630;BME280;56857;52.212;5.496;2023-05-23T06:24:58;102227.06;;;12.44;100.00
69630;BME280;56857;52.212;5.496;2023-05-23T06:27:24;102228.75;;;12.45;100.00
69630;BME280;56857;52.212;5.496;2023-05-23T06:29:49;102233.78;;;12.39;100.00
69630;BME280;56857;52.212;5.496;2023-05-23T06:32:15;102239.13;;;12.39;100.00
69630;BME280;56857;52.212;5.496;2023-05-23T06:34:40;102247.53;;;12.34;100.00
69630;BME280;56857;52.212;5.496;2023-05-23T06:37:05;102232.72;;;12.32;100.00
69630;BME280;56857;52.212;5.496;2023-05-23T06:39:31;102241.53;;;12.32;100.00
69630;BME280;56857;52.212;5.496;2023-05-23T06:41:56;102246.00;;;12.32;100.00
69630;BME280;56857;52.212;5.496;2023-05-23T06:44:22;102244.19;;;12.32;100.00
69630;BME280;56857;52.212;5.496;2023-05-23T06:46:47;102246.31;;;12.28;100.00
69630;BME280;56857;52.212;5.496;2023-05-23T06:49:13;102246.75;;;12.24;100.00
69630;BME280;56857;52.212;5.496;2023-05-23T06:51:39;102253.78;;;12.15;100.00
69630;BME280;56857;52.212;5.496;2023-05-23T06:54:04;102255.44;;;12.16;100.00
69630;BME280;56857;52.212;5.496;2023-05-23T06:56:30;102253.59;;;12.17;100.00
69630;BME280;56857;52.212;5.496;2023-05-23T06:58:56;102262.03;;;12.12;100.00
69630;BME280;56857;52.212;5.496;2023-05-23T07:01:21;102261.31;;;12.10;100.00
69630;BME280;56857;52.212;5.496;2023-05-23T07:03:47;102261.31;;;12.10;100.00
69630;BME280;56857;52.212;5.496;2023-05-23T07:06:12;102264.28;;;12.07;100.00
69630;BME280;56857;52.212;5.496;2023-05-23T07:08:38;102278.84;;;12.03;100.00
69630;BME280;56857;52.212;5.496;2023-05-23T07:11:04;102287.53;;;12.05;100.00
69630;BME280;56857;52.212;5.496;2023-05-23T07:13:29;102283.31;;;12.02;100.00
69630;BME280;56857;52.212;5.496;2023-05-23T07:15:55;102276.47;;;12.00;100.00
69630;BME280;56857;52.212;5.496;2023-05-23T07:18:21;102264.72;;;12.02;100.00
69630;BME280;56857;52.212;5.496;2023-05-23T07:20:46;102287.06;;;12.10;100.00
69630;BME280;56857;52.212;5.496;2023-05-23T07:23:11;102281.19;;;12.16;100.00
69630;BME280;56857;52.212;5.496;2023-05-23T07:25:37;102287.47;;;12.24;100.00
69630;BME280;56857;52.212;5.496;2023-05-23T07:28:11;102290.81;;;12.26;100.00
69630;BME280;56857;52.212;5.496;2023-05-23T07:30:36;102288.56;;;12.32;100.00
69630;BME280;56857;52.212;5.496;2023-05-23T07:33:02;102281.00;;;12.37;100.00
69630;BME280;56857;52.212;5.496;2023-05-23T07:35:27;102294.09;;;12.48;100.00
69630;BME280;56857;52.212;5.496;2023-05-23T07:37:52;102294.31;;;12.64;100.00
69630;BME280;56857;52.212;5.496;2023-05-23T07:40:18;102297.22;;;12.71;100.00
69630;BME280;56857;52.212;5.496;2023-05-23T07:42:47;102287.84;;;12.67;100.00
69630;BME280;56857;52.212;5.496;2023-05-23T07:45:12;102295.53;;;12.70;100.00
69630;BME280;56857;52.212;5.496;2023-05-23T07:47:38;102298.59;;;12.75;100.00
69630;BME280;56857;52.212;5.496;2023-05-23T07:50:04;102291.59;;;12.74;100.00
69630;BME280;56857;52.212;5.496;2023-05-23T07:52:31;102294.56;;;12.71;100.00
69630;BME280;56857;52.212;5.496;2023-05-23T07:54:59;102293.41;;;12.73;100.00
69630;BME280;56857;52.212;5.496;2023-05-23T07:57:24;102288.38;;;12.98;100.00
69630;BME280;56857;52.212;5.496;2023-05-23T07:59:52;102288.78;;;13.21;100.00
69630;BME280;56857;52.212;5.496;2023-05-23T08:02:18;102296.97;;;13.37;100.00
69630;BME280;56857;52.212;5.496;2023-05-23T08:04:44;102293.41;;;13.47;100.00
69630;BME280;56857;52.212;5.496;2023-05-23T08:07:10;102299.16;;;13.42;100.00
69630;BME280;56857;52.212;5.496;2023-05-23T08:09:39;102297.34;;;13.42;100.00
69630;BME280;56857;52.212;5.496;2023-05-23T08:12:08;102290.66;;;13.38;100.00
69630;BME280;56857;52.212;5.496;2023-05-23T08:14:36;102296.72;;;13.49;100.00
69630;BME280;56857;52.212;5.496;2023-05-23T08:17:04;102301.13;;;13.58;100.00
69630;BME280;56857;52.212;5.496;2023-05-23T08:19:31;102311.19;;;13.64;100.00
69630;BME280;56857;52.212;5.496;2023-05-23T08:21:56;102307.00;;;13.61;100.00
69630;BME280;56857;52.212;5.496;2023-05-23T08:24:21;102312.84;;;13.65;100.00
69630;BME280;56857;52.212;5.496;2023-05-23T08:26:47;102311.34;;;13.62;100.00
69630;BME280;56857;52.212;5.496;2023-05-23T08:29:14;102312.72;;;13.66;100.00
69630;BME280;56857;52.212;5.496;2023-05-23T08:31:39;102311.31;;;13.80;100.00
69630;BME280;56857;52.212;5.496;2023-05-23T08:34:05;102315.00;;;14.05;100.00
69630;BME280;56857;52.212;5.496;2023-05-23T08:36:30;102313.63;;;14.27;100.00
69630;BME280;56857;52.212;5.496;2023-05-23T08:38:56;102317.41;;;14.43;100.00
69630;BME280;56857;52.212;5.496;2023-05-23T08:41:22;102319.16;;;14.52;100.00
69630;BME280;56857;52.212;5.496;2023-05-23T08:43:48;102333.31;;;14.52;100.00
69630;BME280;56857;52.212;5.496;2023-05-23T08:46:17;102316.50;;;14.34;100.00
69630;BME280;56857;52.212;5.496;2023-05-23T08:48:49;102329.97;;;14.24;100.00
69630;BME280;56857;52.212;5.496;2023-05-23T08:51:16;102323.38;;;14.10;100.00
69630;BME280;56857;52.212;5.496;2023-05-23T08:53:42;102326.06;;;13.93;100.00
69630;BME280;56857;52.212;5.496;2023-05-23T08:56:12;102336.91;;;13.91;100.00
69630;BME280;56857;52.212;5.496;2023-05-23T08:58:38;102335.75;;;13.94;100.00
69630;BME280;56857;52.212;5.496;2023-05-23T09:01:05;102338.13;;;13.97;100.00
69630;BME280;56857;52.212;5.496;2023-05-23T09:03:31;102346.78;;;13.99;100.00
69630;BME280;56857;52.212;5.496;2023-05-23T09:05:57;102344.41;;;14.13;100.00
69630;BME280;56857;52.212;5.496;2023-05-23T09:08:22;102342.03;;;14.36;100.00
69630;BME280;56857;52.212;5.496;2023-05-23T09:10:48;102348.44;;;14.70;100.00
69630;BME280;56857;52.212;5.496;2023-05-23T09:13:13;102342.16;;;14.87;100.00
69630;BME280;56857;52.212;5.496;2023-05-23T09:15:55;102357.38;;;14.95;100.00
69630;BME280;56857;52.212;5.496;2023-05-23T09:18:20;102352.44;;;15.16;100.00
69630;BME280;56857;52.212;5.496;2023-05-23T09:20:47;102360.13;;;15.19;100.00
69630;BME280;56857;52.212;5.496;2023-05-23T09:23:12;102364.50;;;15.37;100.00
69630;BME280;56857;52.212;5.496;2023-05-23T09:25:45;102361.38;;;15.49;100.00
69630;BME280;56857;52.212;5.496;2023-05-23T09:28:11;102371.41;;;15.56;100.00
69630;BME280;56857;52.212;5.496;2023-05-23T09:30:38;102371.38;;;15.47;100.00
69630;BME280;56857;52.212;5.496;2023-05-23T09:33:03;102370.53;;;15.47;100.00
69630;BME280;56857;52.212;5.496;2023-05-23T09:35:28;102381.88;;;15.33;100.00
69630;BME280;56857;52.212;5.496;2023-05-23T09:37:56;102371.78;;;15.69;100.00
69630;BME280;56857;52.212;5.496;2023-05-23T09:40:22;102374.81;;;16.15;100.00
69630;BME280;56857;52.212;5.496;2023-05-23T09:42:52;102378.84;;;16.75;100.00
69630;BME280;56857;52.212;5.496;2023-05-23T09:45:18;102370.75;;;17.30;100.00
69630;BME280;56857;52.212;5.496;2023-05-23T09:47:51;102372.66;;;17.22;100.00
69630;BME280;56857;52.212;5.496;2023-05-23T09:50:17;102371.38;;;16.54;100.00
69630;BME280;56857;52.212;5.496;2023-05-23T09:52:42;102368.09;;;16.19;100.00
69630;BME280;56857;52.212;5.496;2023-05-23T09:55:08;102373.66;;;16.81;100.00
69630;BME280;56857;52.212;5.496;2023-05-23T09:57:40;102372.34;;;16.69;100.00
69630;BME280;56857;52.212;5.496;2023-05-23T10:00:07;102375.41;;;16.50;100.00
69630;BME280;56857;52.212;5.496;2023-05-23T10:05:08;102375.78;;;16.22;100.00
69630;BME280;56857;52.212;5.496;2023-05-23T10:07:38;102377.78;;;17.00;100.00
69630;BME280;56857;52.212;5.496;2023-05-23T10:10:05;102378.94;;;17.06;100.00
69630;BME280;56857;52.212;5.496;2023-05-23T10:12:39;102386.31;;;16.32;100.00
69630;BME280;56857;52.212;5.496;2023-05-23T10:15:07;102376.13;;;16.03;100.00
69630;BME280;56857;52.212;5.496;2023-05-23T10:20:10;102377.13;;;17.83;100.00
69630;BME280;56857;52.212;5.496;2023-05-23T10:22:35;102390.47;;;17.69;96.44
69630;BME280;56857;52.212;5.496;2023-05-23T10:25:02;102382.09;;;17.09;98.71
69630;BME280;56857;52.212;5.496;2023-05-23T10:27:28;102396.94;;;16.81;100.00
69630;BME280;56857;52.212;5.496;2023-05-23T10:29:54;102387.44;;;16.45;100.00
69630;BME280;56857;52.212;5.496;2023-05-23T10:32:19;102402.69;;;16.29;100.00
69630;BME280;56857;52.212;5.496;2023-05-23T10:43:25;102402.13;;;16.74;100.00
69630;BME280;56857;52.212;5.496;2023-05-23T10:45:53;102407.03;;;16.38;100.00
69630;BME280;56857;52.212;5.496;2023-05-23T10:48:32;102403.19;;;16.32;100.00
69630;BME280;56857;52.212;5.496;2023-05-23T10:51:08;102400.47;;;17.75;100.00
69630;BME280;56857;52.212;5.496;2023-05-23T10:53:38;102401.72;;;18.10;100.00
69630;BME280;56857;52.212;5.496;2023-05-23T10:56:05;102401.28;;;17.52;100.00
69630;BME280;56857;52.212;5.496;2023-05-23T10:58:33;102397.13;;;17.19;100.00
69630;BME280;56857;52.212;5.496;2023-05-23T11:01:01;102408.47;;;17.21;100.00
69630;BME280;56857;52.212;5.496;2023-05-23T11:03:48;102400.50;;;17.12;100.00
69630;BME280;56857;52.212;5.496;2023-05-23T11:06:31;102403.22;;;17.35;100.00
69630;BME280;56857;52.212;5.496;2023-05-23T11:11:50;102405.94;;;16.96;100.00
69630;BME280;56857;52.212;5.496;2023-05-23T11:14:16;102403.06;;;16.98;100.00
69630;BME280;56857;52.212;5.496;2023-05-23T11:16:46;102396.91;;;16.89;97.66
69630;BME280;56857;52.212;5.496;2023-05-23T11:21:48;102401.38;;;18.13;94.07
69630;BME280;56857;52.212;5.496;2023-05-23T11:24:14;102410.66;;;17.56;95.88
69630;BME280;56857;52.212;5.496;2023-05-23T11:26:51;102404.50;;;16.77;100.00
69630;BME280;56857;52.212;5.496;2023-05-23T11:29:16;102412.22;;;16.31;100.00
69630;BME280;56857;52.212;5.496;2023-05-23T11:31:43;102409.56;;;16.31;100.00
69630;BME280;56857;52.212;5.496;2023-05-23T11:34:08;102409.41;;;16.25;100.00
69630;BME280;56857;52.212;5.496;2023-05-23T11:36:34;102417.44;;;16.00;100.00
69630;BME280;56857;52.212;5.496;2023-05-23T11:39:03;102407.06;;;16.05;100.00
69630;BME280;56857;52.212;5.496;2023-05-23T11:41:29;102416.72;;;16.39;100.00
69630;BME280;56857;52.212;5.496;2023-05-23T11:43:55;102424.28;;;16.27;100.00
69630;BME280;56857;52.212;5.496;2023-05-23T11:46:23;102428.47;;;16.05;100.00
69630;BME280;56857;52.212;5.496;2023-05-23T11:48:52;102421.94;;;15.83;100.00
69630;BME280;56857;52.212;5.496;2023-05-23T11:51:18;102426.38;;;15.66;100.00
69630;BME280;56857;52.212;5.496;2023-05-23T11:53:43;102423.28;;;15.95;100.00
69630;BME280;56857;52.212;5.496;2023-05-23T11:56:08;102413.16;;;16.79;100.00
69630;BME280;56857;52.212;5.496;2023-05-23T11:58:36;102414.63;;;17.60;95.41
69630;BME280;56857;52.212;5.496;2023-05-23T12:01:04;102422.13;;;18.34;94.36
69630;BME280;56857;52.212;5.496;2023-05-23T12:03:30;102425.44;;;19.04;88.10
69630;BME280;56857;52.212;5.496;2023-05-23T12:05:56;102414.25;;;18.85;88.20
69630;BME280;56857;52.212;5.496;2023-05-23T12:08:22;102408.59;;;18.95;89.55
69630;BME280;56857;52.212;5.496;2023-05-23T12:10:53;102421.75;;;18.22;82.33
69630;BME280;56857;52.212;5.496;2023-05-23T12:13:23;102421.41;;;17.17;87.75
69630;BME280;56857;52.212;5.496;2023-05-23T12:15:57;102430.63;;;17.14;93.06
69630;BME280;56857;52.212;5.496;2023-05-23T12:18:27;102433.03;;;17.01;95.43
69630;BME280;56857;52.212;5.496;2023-05-23T12:20:52;102430.47;;;17.47;94.34
69630;BME280;56857;52.212;5.496;2023-05-23T12:23:21;102432.78;;;18.04;93.65
69630;BME280;56857;52.212;5.496;2023-05-23T12:25:54;102429.81;;;17.68;95.94
69630;BME280;56857;52.212;5.496;2023-05-23T12:28:32;102436.31;;;17.51;98.86
69630;BME280;56857;52.212;5.496;2023-05-23T12:31:08;102438.66;;;17.54;99.81
69630;BME280;56857;52.212;5.496;2023-05-23T12:33:37;102436.88;;;17.69;94.77
69630;BME280;56857;52.212;5.496;2023-05-23T12:36:04;102428.78;;;17.46;96.09
69630;BME280;56857;52.212;5.496;2023-05-23T12:38:32;102433.22;;;17.00;94.80
69630;BME280;56857;52.212;5.496;2023-05-23T12:41:14;102433.13;;;16.36;95.25
69630;BME280;56857;52.212;5.496;2023-05-23T12:43:52;102434.13;;;16.27;94.05
69630;BME280;56857;52.212;5.496;2023-05-23T12:46:22;102431.63;;;15.84;93.52
69630;BME280;56857;52.212;5.496;2023-05-23T12:48:48;102440.56;;;15.59;96.94
69630;BME280;56857;52.212;5.496;2023-05-23T12:51:13;102445.03;;;15.42;99.64
69630;BME280;56857;52.212;5.496;2023-05-23T12:53:39;102445.25;;;15.14;98.58
69630;BME280;56857;52.212;5.496;2023-05-23T12:56:04;102437.75;;;15.18;100.00
69630;BME280;56857;52.212;5.496;2023-05-23T12:58:30;102443.41;;;15.65;99.53
69630;BME280;56857;52.212;5.496;2023-05-23T13:00:55;102439.69;;;16.09;96.82
69630;BME280;56857;52.212;5.496;2023-05-23T13:03:21;102439.50;;;16.02;97.96